sensor_id;sensor_type;location;lat;lon;timestamp;temperature;humidity
15364;DHT22;7781;49.690;6.472;2023-05-21T00:01:00;15.40;99.90
15364;DHT22;7781;49.690;6.472;2023-05-21T00:03:29;15.40;99.90
15364;DHT22;7781;49.690;6.472;2023-05-21T00:06:00;15.40;99.90
15364;DHT22;7781;49.690;6.472;2023-05-21T00:08:30;15.40;99.90
15364;DHT22;7781;49.690;6.472;2023-05-21T00:11:01;15.40;99.90
15364;DHT22;7781;49.690;6.472;2023-05-21T00:13:30;15.40;99.90
15364;DHT22;7781;49.690;6.472;2023-05-21T00:15:59;15.40;99.90
15364;DHT22;7781;49.690;6.472;2023-05-21T00:18:28;15.30;99.90
15364;DHT22;7781;49.690;6.472;2023-05-21T00:20:58;15.30;99.90
15364;DHT22;7781;49.690;6.472;2023-05-21T00:23:27;15.30;99.90
15364;DHT22;7781;49.690;6.472;2023-05-21T00:25:58;15.30;99.90
15364;DHT22;7781;49.690;6.472;2023-05-21T00:28:29;15.20;99.90
15364;DHT22;7781;49.690;6.472;2023-05-21T00:31:00;15.20;99.90
15364;DHT22;7781;49.690;6.472;2023-05-21T00:33:30;15.20;99.90
15364;DHT22;7781;49.690;6.472;2023-05-21T00:35:59;15.20;99.90
15364;DHT22;7781;49.690;6.472;2023-05-21T00:38:28;15.20;99.90
15364;DHT22;7781;49.690;6.472;2023-05-21T00:40:59;15.20;99.90
15364;DHT22;7781;49.690;6.472;2023-05-21T00:43:30;15.20;99.90
15364;DHT22;7781;49.690;6.472;2023-05-21T00:45:59;15.20;99.90
15364;DHT22;7781;49.690;6.472;2023-05-21T00:48:28;15.20;99.90
15364;DHT22;7781;49.690;6.472;2023-05-21T00:50:58;15.20;99.90
15364;DHT22;7781;49.690;6.472;2023-05-21T00:53:27;15.20;99.90
15364;DHT22;7781;49.690;6.472;2023-05-21T00:55:58;15.20;99.90
15364;DHT22;7781;49.690;6.472;2023-05-21T00:58:30;15.10;99.90
15364;DHT22;7781;49.690;6.472;2023-05-21T01:01:00;15.10;99.90
15364;DHT22;7781;49.690;6.472;2023-05-21T01:03:34;15.10;99.90
15364;DHT22;7781;49.690;6.472;2023-05-21T01:06:07;15.00;99.90
15364;DHT22;7781;49.690;6.472;2023-05-21T01:08:40;15.00;99.90
15364;DHT22;7781;49.690;6.472;2023-05-21T01:11:10;14.90;99.90
15364;DHT22;7781;49.690;6.472;2023-05-21T01:13:43;14.90;99.90
15364;DHT22;7781;49.690;6.472;2023-05-21T01:16:13;15.00;99.90
15364;DHT22;7781;49.690;6.472;2023-05-21T01:18:45;15.00;99.90
15364;DHT22;7781;49.690;6.472;2023-05-21T01:21:16;15.00;99.90
15364;DHT22;7781;49.690;6.472;2023-05-21T01:23:47;14.90;99.90
15364;DHT22;7781;49.690;6.472;2023-05-21T01:26:17;14.90;99.90
15364;DHT22;7781;49.690;6.472;2023-05-21T01:28:46;14.90;99.90
15364;DHT22;7781;49.690;6.472;2023-05-21T01:31:19;14.90;99.90
15364;DHT22;7781;49.690;6.472;2023-05-21T01:33:52;14.80;99.90
15364;DHT22;7781;49.690;6.472;2023-05-21T01:36:24;14.80;99.90
15364;DHT22;7781;49.690;6.472;2023-05-21T01:38:59;14.80;99.90
15364;DHT22;7781;49.690;6.472;2023-05-21T01:41:33;14.80;99.90
15364;DHT22;7781;49.690;6.472;2023-05-21T01:44:05;14.80;99.90
15364;DHT22;7781;49.690;6.472;2023-05-21T01:46:35;14.80;99.90
15364;DHT22;7781;49.690;6.472;2023-05-21T01:49:04;14.80;99.90
15364;DHT22;7781;49.690;6.472;2023-05-21T01:51:34;14.80;99.90
15364;DHT22;7781;49.690;6.472;2023-05-21T01:54:05;14.70;99.90
15364;DHT22;7781;49.690;6.472;2023-05-21T01:56:34;14.70;99.90
15364;DHT22;7781;49.690;6.472;2023-05-21T01:59:04;14.70;99.90
15364;DHT22;7781;49.690;6.472;2023-05-21T02:01:35;14.80;99.90
15364;DHT22;7781;49.690;6.472;2023-05-21T02:04:06;14.80;99.90
15364;DHT22;7781;49.690;6.472;2023-05-21T02:06:35;14.80;99.90
15364;DHT22;7781;49.690;6.472;2023-05-21T02:09:07;14.70;99.90
15364;DHT22;7781;49.690;6.472;2023-05-21T02:11:36;14.70;99.90
15364;DHT22;7781;49.690;6.472;2023-05-21T02:14:05;14.70;99.90
15364;DHT22;7781;49.690;6.472;2023-05-21T02:16:34;14.70;99.90
15364;DHT22;7781;49.690;6.472;2023-05-21T02:19:04;14.60;99.90
15364;DHT22;7781;49.690;6.472;2023-05-21T02:21:33;14.70;99.90
15364;DHT22;7781;49.690;6.472;2023-05-21T02:24:02;14.70;99.90
15364;DHT22;7781;49.690;6.472;2023-05-21T02:26:34;14.70;99.90
15364;DHT22;7781;49.690;6.472;2023-05-21T02:29:04;14.70;99.90
15364;DHT22;7781;49.690;6.472;2023-05-21T02:31:35;14.70;99.90
15364;DHT22;7781;49.690;6.472;2023-05-21T02:34:05;14.70;99.90
15364;DHT22;7781;49.690;6.472;2023-05-21T02:36:35;14.70;99.90
15364;DHT22;7781;49.690;6.472;2023-05-21T02:39:07;14.60;99.90
15364;DHT22;7781;49.690;6.472;2023-05-21T02:41:38;14.70;99.90
15364;DHT22;7781;49.690;6.472;2023-05-21T02:44:08;14.70;99.90
15364;DHT22;7781;49.690;6.472;2023-05-21T02:46:37;14.70;99.90
15364;DHT22;7781;49.690;6.472;2023-05-21T02:49:06;14.70;99.90
15364;DHT22;7781;49.690;6.472;2023-05-21T02:51:34;14.60;99.90
15364;DHT22;7781;49.690;6.472;2023-05-21T02:54:03;14.60;99.90
15364;DHT22;7781;49.690;6.472;2023-05-21T02:56:32;14.60;99.90
15364;DHT22;7781;49.690;6.472;2023-05-21T02:59:03;14.60;99.90
15364;DHT22;7781;49.690;6.472;2023-05-21T03:01:33;14.60;99.90
15364;DHT22;7781;49.690;6.472;2023-05-21T03:04:03;14.60;99.90
15364;DHT22;7781;49.690;6.472;2023-05-21T03:06:32;14.60;99.90
15364;DHT22;7781;49.690;6.472;2023-05-21T03:09:01;14.60;99.90
15364;DHT22;7781;49.690;6.472;2023-05-21T03:11:30;14.60;99.90
15364;DHT22;7781;49.690;6.472;2023-05-21T03:13:59;14.60;99.90
15364;DHT22;7781;49.690;6.472;2023-05-21T03:16:29;14.60;99.90
15364;DHT22;7781;49.690;6.472;2023-05-21T03:19:00;14.60;99.90
15364;DHT22;7781;49.690;6.472;2023-05-21T03:21:29;14.60;99.90
15364;DHT22;7781;49.690;6.472;2023-05-21T03:24:00;14.60;99.90
15364;DHT22;7781;49.690;6.472;2023-05-21T03:26:29;14.60;99.90
15364;DHT22;7781;49.690;6.472;2023-05-21T03:28:59;14.60;99.90
15364;DHT22;7781;49.690;6.472;2023-05-21T03:31:31;14.60;99.90
15364;DHT22;7781;49.690;6.472;2023-05-21T03:34:11;14.60;99.90
15364;DHT22;7781;49.690;6.472;2023-05-21T03:36:40;14.50;99.90
15364;DHT22;7781;49.690;6.472;2023-05-21T03:39:12;14.50;99.90
15364;DHT22;7781;49.690;6.472;2023-05-21T03:41:42;14.50;99.90
15364;DHT22;7781;49.690;6.472;2023-05-21T03:44:21;14.40;99.90
15364;DHT22;7781;49.690;6.472;2023-05-21T03:47:06;14.40;99.90
15364;DHT22;7781;49.690;6.472;2023-05-21T03:49:35;14.30;99.90
15364;DHT22;7781;49.690;6.472;2023-05-21T03:52:07;14.30;99.90
15364;DHT22;7781;49.690;6.472;2023-05-21T03:54:35;14.30;99.90
15364;DHT22;7781;49.690;6.472;2023-05-21T03:57:07;14.30;99.90
15364;DHT22;7781;49.690;6.472;2023-05-21T03:59:37;14.30;99.90
15364;DHT22;7781;49.690;6.472;2023-05-21T04:02:07;14.30;99.90
15364;DHT22;7781;49.690;6.472;2023-05-21T04:04:35;14.30;99.90
15364;DHT22;7781;49.690;6.472;2023-05-21T04:07:04;14.30;99.90
15364;DHT22;7781;49.690;6.472;2023-05-21T04:09:40;14.30;99.90
15364;DHT22;7781;49.690;6.472;2023-05-21T04:12:10;14.30;99.90
15364;DHT22;7781;49.690;6.472;2023-05-21T04:14:39;14.30;99.90
15364;DHT22;7781;49.690;6.472;2023-05-21T04:17:11;14.30;99.90
15364;DHT22;7781;49.690;6.472;2023-05-21T04:19:40;14.30;99.90
15364;DHT22;7781;49.690;6.472;2023-05-21T04:22:11;14.40;99.90
15364;DHT22;7781;49.690;6.472;2023-05-21T04:24:41;14.40;99.90
15364;DHT22;7781;49.690;6.472;2023-05-21T04:27:21;14.40;99.90
15364;DHT22;7781;49.690;6.472;2023-05-21T04:29:52;14.40;99.90
15364;DHT22;7781;49.690;6.472;2023-05-21T04:32:25;14.40;99.90
15364;DHT22;7781;49.690;6.472;2023-05-21T04:34:54;14.50;99.90
15364;DHT22;7781;49.690;6.472;2023-05-21T04:37:24;14.50;99.90
15364;DHT22;7781;49.690;6.472;2023-05-21T04:39:56;14.50;99.90
15364;DHT22;7781;49.690;6.472;2023-05-21T04:42:25;14.50;99.90
15364;DHT22;7781;49.690;6.472;2023-05-21T04:44:55;14.50;99.90
15364;DHT22;7781;49.690;6.472;2023-05-21T04:47:29;14.60;99.90
15364;DHT22;7781;49.690;6.472;2023-05-21T04:50:02;14.60;99.90
15364;DHT22;7781;49.690;6.472;2023-05-21T04:52:32;14.60;99.90
15364;DHT22;7781;49.690;6.472;2023-05-21T04:55:01;14.70;99.90
15364;DHT22;7781;49.690;6.472;2023-05-21T04:57:31;14.60;99.90
15364;DHT22;7781;49.690;6.472;2023-05-21T05:00:02;14.60;99.90
15364;DHT22;7781;49.690;6.472;2023-05-21T05:02:40;14.70;99.90
15364;DHT22;7781;49.690;6.472;2023-05-21T05:05:11;14.70;99.90
15364;DHT22;7781;49.690;6.472;2023-05-21T05:07:42;14.70;99.90
15364;DHT22;7781;49.690;6.472;2023-05-21T05:10:11;14.70;99.90
15364;DHT22;7781;49.690;6.472;2023-05-21T05:12:40;14.70;99.90
15364;DHT22;7781;49.690;6.472;2023-05-21T05:15:10;14.70;99.90
15364;DHT22;7781;49.690;6.472;2023-05-21T05:17:42;14.70;99.90
15364;DHT22;7781;49.690;6.472;2023-05-21T05:20:14;14.70;99.90
15364;DHT22;7781;49.690;6.472;2023-05-21T05:22:45;14.70;99.90
15364;DHT22;7781;49.690;6.472;2023-05-21T05:25:15;14.70;99.90
15364;DHT22;7781;49.690;6.472;2023-05-21T05:27:44;14.70;99.90
15364;DHT22;7781;49.690;6.472;2023-05-21T05:30:15;14.70;99.90
15364;DHT22;7781;49.690;6.472;2023-05-21T05:32:47;14.80;99.90
15364;DHT22;7781;49.690;6.472;2023-05-21T05:35:19;14.80;99.90
15364;DHT22;7781;49.690;6.472;2023-05-21T05:37:48;14.80;99.90
15364;DHT22;7781;49.690;6.472;2023-05-21T05:40:17;14.90;99.90
15364;DHT22;7781;49.690;6.472;2023-05-21T05:42:46;14.90;99.90
15364;DHT22;7781;49.690;6.472;2023-05-21T05:45:20;15.00;99.90
15364;DHT22;7781;49.690;6.472;2023-05-21T05:47:51;15.00;99.90
15364;DHT22;7781;49.690;6.472;2023-05-21T05:50:20;15.10;99.90
15364;DHT22;7781;49.690;6.472;2023-05-21T05:52:49;15.10;99.90
15364;DHT22;7781;49.690;6.472;2023-05-21T05:55:19;15.20;99.90
15364;DHT22;7781;49.690;6.472;2023-05-21T05:57:48;15.20;99.90
15364;DHT22;7781;49.690;6.472;2023-05-21T06:00:18;15.20;99.90
15364;DHT22;7781;49.690;6.472;2023-05-21T06:02:51;15.30;99.90
15364;DHT22;7781;49.690;6.472;2023-05-21T06:05:20;15.30;99.90
15364;DHT22;7781;49.690;6.472;2023-05-21T06:07:49;15.30;99.90
15364;DHT22;7781;49.690;6.472;2023-05-21T06:10:20;15.40;99.90
15364;DHT22;7781;49.690;6.472;2023-05-21T06:12:49;15.50;99.90
15364;DHT22;7781;49.690;6.472;2023-05-21T06:15:18;15.50;99.90
15364;DHT22;7781;49.690;6.472;2023-05-21T06:17:48;15.50;99.90
15364;DHT22;7781;49.690;6.472;2023-05-21T06:20:19;15.50;99.90
15364;DHT22;7781;49.690;6.472;2023-05-21T06:22:48;15.50;99.90
15364;DHT22;7781;49.690;6.472;2023-05-21T06:25:18;15.60;99.90
15364;DHT22;7781;49.690;6.472;2023-05-21T06:27:48;15.60;99.90
15364;DHT22;7781;49.690;6.472;2023-05-21T06:30:23;15.70;99.90
15364;DHT22;7781;49.690;6.472;2023-05-21T06:32:52;15.80;99.90
15364;DHT22;7781;49.690;6.472;2023-05-21T06:35:23;15.80;99.90
15364;DHT22;7781;49.690;6.472;2023-05-21T06:37:53;15.90;99.90
15364;DHT22;7781;49.690;6.472;2023-05-21T06:40:22;16.00;99.90
15364;DHT22;7781;49.690;6.472;2023-05-21T06:42:54;16.10;99.90
15364;DHT22;7781;49.690;6.472;2023-05-21T06:45:35;16.20;99.90
15364;DHT22;7781;49.690;6.472;2023-05-21T06:48:17;16.20;99.90
15364;DHT22;7781;49.690;6.472;2023-05-21T06:50:49;16.30;99.90
15364;DHT22;7781;49.690;6.472;2023-05-21T06:53:17;16.30;99.90
15364;DHT22;7781;49.690;6.472;2023-05-21T06:55:49;16.40;99.90
15364;DHT22;7781;49.690;6.472;2023-05-21T06:58:39;16.50;99.90
15364;DHT22;7781;49.690;6.472;2023-05-21T07:01:07;16.60;99.90
15364;DHT22;7781;49.690;6.472;2023-05-21T07:03:37;16.60;99.90
15364;DHT22;7781;49.690;6.472;2023-05-21T07:06:09;16.80;99.90
15364;DHT22;7781;49.690;6.472;2023-05-21T07:08:38;16.90;99.90
15364;DHT22;7781;49.690;6.472;2023-05-21T07:11:06;17.00;99.90
15364;DHT22;7781;49.690;6.472;2023-05-21T07:13:36;16.90;99.90
15364;DHT22;7781;49.690;6.472;2023-05-21T07:16:06;17.00;99.90
15364;DHT22;7781;49.690;6.472;2023-05-21T07:18:36;17.00;99.90
15364;DHT22;7781;49.690;6.472;2023-05-21T07:21:05;17.00;99.90
15364;DHT22;7781;49.690;6.472;2023-05-21T07:23:36;17.00;99.90
15364;DHT22;7781;49.690;6.472;2023-05-21T07:26:08;17.00;99.90
15364;DHT22;7781;49.690;6.472;2023-05-21T07:28:38;17.00;99.90
15364;DHT22;7781;49.690;6.472;2023-05-21T07:31:07;17.10;99.90
15364;DHT22;7781;49.690;6.472;2023-05-21T07:33:42;17.20;99.90
15364;DHT22;7781;49.690;6.472;2023-05-21T07:36:13;17.20;99.90
15364;DHT22;7781;49.690;6.472;2023-05-21T07:38:44;17.30;99.90
15364;DHT22;7781;49.690;6.472;2023-05-21T07:41:13;17.40;99.90
15364;DHT22;7781;49.690;6.472;2023-05-21T07:43:45;17.50;99.90
15364;DHT22;7781;49.690;6.472;2023-05-21T07:46:14;17.60;99.90
15364;DHT22;7781;49.690;6.472;2023-05-21T07:48:44;17.70;99.90
15364;DHT22;7781;49.690;6.472;2023-05-21T07:51:14;17.80;99.90
15364;DHT22;7781;49.690;6.472;2023-05-21T07:53:44;17.90;99.90
15364;DHT22;7781;49.690;6.472;2023-05-21T07:56:16;18.00;99.90
15364;DHT22;7781;49.690;6.472;2023-05-21T07:58:44;18.00;99.90
15364;DHT22;7781;49.690;6.472;2023-05-21T08:01:14;18.10;99.90
15364;DHT22;7781;49.690;6.472;2023-05-21T08:03:46;18.10;99.90
15364;DHT22;7781;49.690;6.472;2023-05-21T08:06:14;18.20;99.90
15364;DHT22;7781;49.690;6.472;2023-05-21T08:08:45;18.30;99.90
15364;DHT22;7781;49.690;6.472;2023-05-21T08:11:14;18.30;99.90
15364;DHT22;7781;49.690;6.472;2023-05-21T08:13:43;18.40;99.90
15364;DHT22;7781;49.690;6.472;2023-05-21T08:16:13;18.50;99.90
15364;DHT22;7781;49.690;6.472;2023-05-21T08:18:44;18.50;99.90
15364;DHT22;7781;49.690;6.472;2023-05-21T08:21:16;18.60;99.90
15364;DHT22;7781;49.690;6.472;2023-05-21T08:23:46;18.70;99.90
15364;DHT22;7781;49.690;6.472;2023-05-21T08:26:25;18.80;99.90
15364;DHT22;7781;49.690;6.472;2023-05-21T08:28:54;18.90;99.90
15364;DHT22;7781;49.690;6.472;2023-05-21T08:31:23;18.90;99.90
15364;DHT22;7781;49.690;6.472;2023-05-21T08:33:52;19.00;99.90
15364;DHT22;7781;49.690;6.472;2023-05-21T08:36:34;19.10;99.90
15364;DHT22;7781;49.690;6.472;2023-05-21T08:39:10;19.20;99.90
15364;DHT22;7781;49.690;6.472;2023-05-21T08:41:43;19.30;99.90
15364;DHT22;7781;49.690;6.472;2023-05-21T08:44:19;19.40;99.90
15364;DHT22;7781;49.690;6.472;2023-05-21T08:46:49;19.60;99.90
15364;DHT22;7781;49.690;6.472;2023-05-21T08:49:25;19.70;99.90
15364;DHT22;7781;49.690;6.472;2023-05-21T08:51:58;19.70;99.90
15364;DHT22;7781;49.690;6.472;2023-05-21T08:54:28;19.70;99.90
15364;DHT22;7781;49.690;6.472;2023-05-21T08:57:01;19.80;99.90
15364;DHT22;7781;49.690;6.472;2023-05-21T08:59:31;19.80;99.90
15364;DHT22;7781;49.690;6.472;2023-05-21T09:02:12;20.00;99.90
15364;DHT22;7781;49.690;6.472;2023-05-21T09:04:42;20.10;99.90
15364;DHT22;7781;49.690;6.472;2023-05-21T09:07:15;20.30;99.90
15364;DHT22;7781;49.690;6.472;2023-05-21T09:10:24;20.30;99.90
15364;DHT22;7781;49.690;6.472;2023-05-21T09:12:55;20.30;99.90
15364;DHT22;7781;49.690;6.472;2023-05-21T09:15:26;20.40;99.90
15364;DHT22;7781;49.690;6.472;2023-05-21T09:17:55;20.40;99.90
15364;DHT22;7781;49.690;6.472;2023-05-21T09:20:46;20.40;99.90
15364;DHT22;7781;49.690;6.472;2023-05-21T09:23:16;20.50;99.90
15364;DHT22;7781;49.690;6.472;2023-05-21T09:26:09;20.60;99.90
15364;DHT22;7781;49.690;6.472;2023-05-21T09:28:41;20.70;99.90
15364;DHT22;7781;49.690;6.472;2023-05-21T09:31:10;20.80;99.90
15364;DHT22;7781;49.690;6.472;2023-05-21T09:33:45;20.90;99.90
15364;DHT22;7781;49.690;6.472;2023-05-21T09:36:17;21.10;99.90
15364;DHT22;7781;49.690;6.472;2023-05-21T09:38:49;21.20;99.90
15364;DHT22;7781;49.690;6.472;2023-05-21T09:41:30;21.40;99.90
15364;DHT22;7781;49.690;6.472;2023-05-21T09:44:01;21.60;99.90
15364;DHT22;7781;49.690;6.472;2023-05-21T09:46:37;21.60;99.90
15364;DHT22;7781;49.690;6.472;2023-05-21T09:49:21;21.70;99.90
15364;DHT22;7781;49.690;6.472;2023-05-21T09:51:54;21.70;99.90
15364;DHT22;7781;49.690;6.472;2023-05-21T09:54:24;21.80;99.90
15364;DHT22;7781;49.690;6.472;2023-05-21T09:56:55;21.90;99.90
15364;DHT22;7781;49.690;6.472;2023-05-21T09:59:34;22.00;99.90
15364;DHT22;7781;49.690;6.472;2023-05-21T10:02:16;22.10;99.90
15364;DHT22;7781;49.690;6.472;2023-05-21T10:04:49;22.30;99.90
15364;DHT22;7781;49.690;6.472;2023-05-21T10:07:19;22.40;99.90
15364;DHT22;7781;49.690;6.472;2023-05-21T10:09:53;22.50;99.90
15364;DHT22;7781;49.690;6.472;2023-05-21T10:12:26;22.60;99.90
15364;DHT22;7781;49.690;6.472;2023-05-21T10:14:59;22.70;99.90
15364;DHT22;7781;49.690;6.472;2023-05-21T10:17:29;22.70;99.90
15364;DHT22;7781;49.690;6.472;2023-05-21T10:19:59;22.80;99.90
15364;DHT22;7781;49.690;6.472;2023-05-21T10:22:30;22.80;99.90
15364;DHT22;7781;49.690;6.472;2023-05-21T10:25:01;23.00;99.90
15364;DHT22;7781;49.690;6.472;2023-05-21T10:27:33;23.10;99.90
15364;DHT22;7781;49.690;6.472;2023-05-21T10:30:04;23.30;99.90
15364;DHT22;7781;49.690;6.472;2023-05-21T10:32:33;23.40;99.90
15364;DHT22;7781;49.690;6.472;2023-05-21T10:35:02;23.60;99.90
15364;DHT22;7781;49.690;6.472;2023-05-21T10:37:32;23.80;99.90
15364;DHT22;7781;49.690;6.472;2023-05-21T10:40:01;24.00;99.90
15364;DHT22;7781;49.690;6.472;2023-05-21T10:43:01;24.30;99.90
15364;DHT22;7781;49.690;6.472;2023-05-21T10:45:42;24.50;99.90
15364;DHT22;7781;49.690;6.472;2023-05-21T10:48:27;24.80;99.90
15364;DHT22;7781;49.690;6.472;2023-05-21T10:51:17;25.10;99.90
15364;DHT22;7781;49.690;6.472;2023-05-21T10:54:03;25.30;99.90
15364;DHT22;7781;49.690;6.472;2023-05-21T10:56:38;25.60;99.90
15364;DHT22;7781;49.690;6.472;2023-05-21T10:59:19;25.80;99.90
15364;DHT22;7781;49.690;6.472;2023-05-21T11:01:51;25.90;99.90
15364;DHT22;7781;49.690;6.472;2023-05-21T11:04:24;26.10;99.90
15364;DHT22;7781;49.690;6.472;2023-05-21T11:06:53;26.10;99.90
15364;DHT22;7781;49.690;6.472;2023-05-21T11:09:22;26.20;99.90
15364;DHT22;7781;49.690;6.472;2023-05-21T11:11:56;26.20;99.90
15364;DHT22;7781;49.690;6.472;2023-05-21T11:14:29;26.40;99.90
15364;DHT22;7781;49.690;6.472;2023-05-21T11:16:59;26.70;99.90
15364;DHT22;7781;49.690;6.472;2023-05-21T11:19:42;26.90;99.90
15364;DHT22;7781;49.690;6.472;2023-05-21T11:22:21;27.10;99.90
15364;DHT22;7781;49.690;6.472;2023-05-21T11:24:50;27.30;99.90
15364;DHT22;7781;49.690;6.472;2023-05-21T11:27:32;27.40;99.90
15364;DHT22;7781;49.690;6.472;2023-05-21T11:30:09;27.60;99.90
15364;DHT22;7781;49.690;6.472;2023-05-21T11:32:38;27.70;99.90
15364;DHT22;7781;49.690;6.472;2023-05-21T11:35:07;27.80;99.90
15364;DHT22;7781;49.690;6.472;2023-05-21T11:37:37;28.00;99.90
15364;DHT22;7781;49.690;6.472;2023-05-21T11:40:18;28.10;99.90
15364;DHT22;7781;49.690;6.472;2023-05-21T11:42:50;28.30;99.90
15364;DHT22;7781;49.690;6.472;2023-05-21T11:45:22;28.40;99.90
15364;DHT22;7781;49.690;6.472;2023-05-21T11:47:53;28.40;99.90
15364;DHT22;7781;49.690;6.472;2023-05-21T11:50:24;28.40;99.90
15364;DHT22;7781;49.690;6.472;2023-05-21T11:52:58;28.20;99.90
15364;DHT22;7781;49.690;6.472;2023-05-21T11:55:27;28.20;99.90
15364;DHT22;7781;49.690;6.472;2023-05-21T11:57:57;28.40;99.90
15364;DHT22;7781;49.690;6.472;2023-05-21T12:00:27;28.60;99.90
15364;DHT22;7781;49.690;6.472;2023-05-21T12:02:57;28.80;99.90
15364;DHT22;7781;49.690;6.472;2023-05-21T12:05:27;29.10;99.90
15364;DHT22;7781;49.690;6.472;2023-05-21T12:07:56;29.30;99.90
15364;DHT22;7781;49.690;6.472;2023-05-21T12:10:26;29.50;99.90
15364;DHT22;7781;49.690;6.472;2023-05-21T12:12:55;29.70;99.90
15364;DHT22;7781;49.690;6.472;2023-05-21T12:15:27;29.70;99.90
15364;DHT22;7781;49.690;6.472;2023-05-21T12:17:56;29.80;99.90
15364;DHT22;7781;49.690;6.472;2023-05-21T12:20:25;29.80;99.90
15364;DHT22;7781;49.690;6.472;2023-05-21T12:22:56;29.80;99.90
15364;DHT22;7781;49.690;6.472;2023-05-21T12:25:27;29.90;99.90
15364;DHT22;7781;49.690;6.472;2023-05-21T12:27:58;30.00;99.90
15364;DHT22;7781;49.690;6.472;2023-05-21T12:30:29;30.00;99.90
15364;DHT22;7781;49.690;6.472;2023-05-21T12:32:58;30.10;99.90
15364;DHT22;7781;49.690;6.472;2023-05-21T12:35:29;30.20;99.90
15364;DHT22;7781;49.690;6.472;2023-05-21T12:38:00;30.60;99.90
15364;DHT22;7781;49.690;6.472;2023-05-21T12:40:35;30.70;99.90
15364;DHT22;7781;49.690;6.472;2023-05-21T12:43:06;30.80;99.90
15364;DHT22;7781;49.690;6.472;2023-05-21T12:45:37;31.00;99.90
15364;DHT22;7781;49.690;6.472;2023-05-21T12:48:09;31.00;99.90
15364;DHT22;7781;49.690;6.472;2023-05-21T12:50:39;31.00;99.90
15364;DHT22;7781;49.690;6.472;2023-05-21T12:53:10;31.30;99.90
15364;DHT22;7781;49.690;6.472;2023-05-21T12:55:40;31.10;99.90
15364;DHT22;7781;49.690;6.472;2023-05-21T12:58:12;31.20;99.90
15364;DHT22;7781;49.690;6.472;2023-05-21T13:00:44;31.60;99.90
15364;DHT22;7781;49.690;6.472;2023-05-21T13:03:12;31.90;99.90
15364;DHT22;7781;49.690;6.472;2023-05-21T13:05:43;32.30;99.90
15364;DHT22;7781;49.690;6.472;2023-05-21T13:08:12;32.60;99.90
15364;DHT22;7781;49.690;6.472;2023-05-21T13:10:44;32.40;99.90
15364;DHT22;7781;49.690;6.472;2023-05-21T13:13:12;32.60;99.90
15364;DHT22;7781;49.690;6.472;2023-05-21T13:15:43;32.70;99.90
15364;DHT22;7781;49.690;6.472;2023-05-21T13:18:11;32.60;99.90
15364;DHT22;7781;49.690;6.472;2023-05-21T13:20:42;32.50;99.90
15364;DHT22;7781;49.690;6.472;2023-05-21T13:23:10;32.70;99.90
15364;DHT22;7781;49.690;6.472;2023-05-21T13:25:39;32.80;99.90
15364;DHT22;7781;49.690;6.472;2023-05-21T13:28:08;32.90;99.90
15364;DHT22;7781;49.690;6.472;2023-05-21T13:30:42;33.10;99.90
15364;DHT22;7781;49.690;6.472;2023-05-21T13:33:13;33.20;99.90
15364;DHT22;7781;49.690;6.472;2023-05-21T13:35:42;33.10;99.90
15364;DHT22;7781;49.690;6.472;2023-05-21T13:38:13;32.90;99.90
15364;DHT22;7781;49.690;6.472;2023-05-21T13:40:41;32.50;99.90
15364;DHT22;7781;49.690;6.472;2023-05-21T13:43:12;32.50;99.90
15364;DHT22;7781;49.690;6.472;2023-05-21T13:45:40;32.50;99.90
15364;DHT22;7781;49.690;6.472;2023-05-21T13:48:11;32.50;99.90
15364;DHT22;7781;49.690;6.472;2023-05-21T13:50:40;32.30;99.90
15364;DHT22;7781;49.690;6.472;2023-05-21T13:53:11;32.10;99.90
15364;DHT22;7781;49.690;6.472;2023-05-21T13:55:40;32.00;99.90
15364;DHT22;7781;49.690;6.472;2023-05-21T13:58:08;31.80;99.90
15364;DHT22;7781;49.690;6.472;2023-05-21T14:00:37;31.60;99.90
15364;DHT22;7781;49.690;6.472;2023-05-21T14:03:07;31.50;99.90
15364;DHT22;7781;49.690;6.472;2023-05-21T14:05:38;31.30;99.90
15364;DHT22;7781;49.690;6.472;2023-05-21T14:08:07;31.20;99.90
15364;DHT22;7781;49.690;6.472;2023-05-21T14:10:36;31.30;99.90
15364;DHT22;7781;49.690;6.472;2023-05-21T14:13:04;31.30;99.90
15364;DHT22;7781;49.690;6.472;2023-05-21T14:15:45;31.50;99.90
15364;DHT22;7781;49.690;6.472;2023-05-21T14:18:14;31.60;99.90
15364;DHT22;7781;49.690;6.472;2023-05-21T14:20:45;31.60;99.90
15364;DHT22;7781;49.690;6.472;2023-05-21T14:23:14;31.60;99.90
15364;DHT22;7781;49.690;6.472;2023-05-21T14:25:43;31.20;99.90
15364;DHT22;7781;49.690;6.472;2023-05-21T14:28:15;31.20;99.90
15364;DHT22;7781;49.690;6.472;2023-05-21T14:30:43;31.30;99.90
15364;DHT22;7781;49.690;6.472;2023-05-21T14:33:16;31.60;99.90
15364;DHT22;7781;49.690;6.472;2023-05-21T14:35:47;32.00;99.90
15364;DHT22;7781;49.690;6.472;2023-05-21T14:38:17;32.20;99.90
15364;DHT22;7781;49.690;6.472;2023-05-21T14:40:45;32.30;99.90
15364;DHT22;7781;49.690;6.472;2023-05-21T14:43:15;32.40;99.90
15364;DHT22;7781;49.690;6.472;2023-05-21T14:45:48;32.30;99.90
15364;DHT22;7781;49.690;6.472;2023-05-21T14:48:18;32.40;99.90
15364;DHT22;7781;49.690;6.472;2023-05-21T14:50:53;32.40;99.90
15364;DHT22;7781;49.690;6.472;2023-05-21T14:53:23;32.70;99.90
15364;DHT22;7781;49.690;6.472;2023-05-21T14:55:52;33.00;99.90
15364;DHT22;7781;49.690;6.472;2023-05-21T14:58:21;33.30;99.90
15364;DHT22;7781;49.690;6.472;2023-05-21T15:00:50;33.40;99.90
15364;DHT22;7781;49.690;6.472;2023-05-21T15:03:19;33.60;99.90
15364;DHT22;7781;49.690;6.472;2023-05-21T15:05:48;33.80;99.90
15364;DHT22;7781;49.690;6.472;2023-05-21T15:08:20;33.80;99.90
15364;DHT22;7781;49.690;6.472;2023-05-21T15:10:48;34.00;99.90
15364;DHT22;7781;49.690;6.472;2023-05-21T15:13:17;34.10;99.90
15364;DHT22;7781;49.690;6.472;2023-05-21T15:15:48;34.10;99.90
15364;DHT22;7781;49.690;6.472;2023-05-21T15:18:17;33.80;99.90
15364;DHT22;7781;49.690;6.472;2023-05-21T15:20:45;33.60;99.90
15364;DHT22;7781;49.690;6.472;2023-05-21T15:23:14;33.50;99.90
15364;DHT22;7781;49.690;6.472;2023-05-21T15:25:45;33.30;99.90
15364;DHT22;7781;49.690;6.472;2023-05-21T15:28:14;33.00;99.90
15364;DHT22;7781;49.690;6.472;2023-05-21T15:30:42;32.80;99.90
15364;DHT22;7781;49.690;6.472;2023-05-21T15:33:11;32.70;99.90
15364;DHT22;7781;49.690;6.472;2023-05-21T15:35:40;32.70;99.90
15364;DHT22;7781;49.690;6.472;2023-05-21T15:38:09;32.60;99.90
15364;DHT22;7781;49.690;6.472;2023-05-21T15:40:38;32.50;99.90
15364;DHT22;7781;49.690;6.472;2023-05-21T15:43:09;32.20;99.90
15364;DHT22;7781;49.690;6.472;2023-05-21T15:45:40;31.90;99.90
15364;DHT22;7781;49.690;6.472;2023-05-21T15:48:10;31.70;99.90
15364;DHT22;7781;49.690;6.472;2023-05-21T15:50:39;31.40;99.90
15364;DHT22;7781;49.690;6.472;2023-05-21T15:53:09;31.10;99.90
15364;DHT22;7781;49.690;6.472;2023-05-21T15:55:39;30.80;99.90
15364;DHT22;7781;49.690;6.472;2023-05-21T15:58:10;30.60;99.90
15364;DHT22;7781;49.690;6.472;2023-05-21T16:00:39;30.40;99.90
15364;DHT22;7781;49.690;6.472;2023-05-21T16:03:07;30.20;99.90
15364;DHT22;7781;49.690;6.472;2023-05-21T16:05:39;29.90;99.90
15364;DHT22;7781;49.690;6.472;2023-05-21T16:08:08;29.70;99.90
15364;DHT22;7781;49.690;6.472;2023-05-21T16:10:38;29.60;99.90